メインページ
METAR-TAF:

METAR-TAF

空港 :

カウナカカイ, ハワイ州, アメリカ合衆国

緯度: 21-09N, 経度: 157-06W, 海抜: 138m

現時点の気象観測

当レポートは25分前の23:54(UTC)に作成
南/南東の風 9kt
気温 29°C
湿度 70%
気圧 1013 hPa
視程: 16.1km
高度2200ftの雲はほとんどない

METAR: PHMK 202354Z 16009KT 10SM FEW022 29/23 A2991 RMK AO2 SLP128 T02890233 10311 20278 58013

時間: 14:19 (00:19 UTC)

予報

当レポートは38分前の23:41(UTC)に作成
予報は21日の 00時(UTC)から 21日の 24時(UTC)まで有効
北/北東の風 9kt
視程: 10km
高度2500ftの雲は散在している
高度6000ftの雲は散在している

TAF: PHMK 202341Z 2100/2124 03009KT P6SM SCT025 SCT060

4,000以上の空港の気象観測と天気予報(METAR報とTAF報)

利用可能な観測所は地図上に黄色い丸と赤い丸で示す。

丸の上にカーソルを重ねると観測所名を参照できる。

次にクリックすると気象観測と天気予報を参照できる。

マップの切り替え:黒色「×」印の緑ボタンをクリックして拡大、「-」印の緑ボタンをクリックして縮小、緑色の三角印をクリックして隣りの地図に切り替え


METAR-TAF: